sensor_id;sensor_type;location;lat;lon;timestamp;temperature;humidity
12408;DHT22;6268;48.188;17.134;2023-03-23T00:01:19;11.60;99.90
12408;DHT22;6268;48.188;17.134;2023-03-23T00:03:49;11.50;99.90
12408;DHT22;6268;48.188;17.134;2023-03-23T00:06:19;11.60;99.90
12408;DHT22;6268;48.188;17.134;2023-03-23T00:08:48;11.60;99.90
12408;DHT22;6268;48.188;17.134;2023-03-23T00:11:25;11.50;99.90
12408;DHT22;6268;48.188;17.134;2023-03-23T00:13:57;11.50;99.90
12408;DHT22;6268;48.188;17.134;2023-03-23T00:16:30;11.50;99.90
12408;DHT22;6268;48.188;17.134;2023-03-23T00:19:02;11.40;99.90
12408;DHT22;6268;48.188;17.134;2023-03-23T00:21:32;11.40;99.90
12408;DHT22;6268;48.188;17.134;2023-03-23T00:24:03;11.30;99.90
12408;DHT22;6268;48.188;17.134;2023-03-23T00:26:35;11.30;99.90
12408;DHT22;6268;48.188;17.134;2023-03-23T00:29:07;11.40;99.90
12408;DHT22;6268;48.188;17.134;2023-03-23T00:31:40;11.40;99.90
12408;DHT22;6268;48.188;17.134;2023-03-23T00:34:13;11.30;99.90
12408;DHT22;6268;48.188;17.134;2023-03-23T00:36:44;11.30;99.90
12408;DHT22;6268;48.188;17.134;2023-03-23T00:39:12;11.30;99.90
12408;DHT22;6268;48.188;17.134;2023-03-23T00:41:43;11.10;99.90
12408;DHT22;6268;48.188;17.134;2023-03-23T00:44:13;11.20;99.90
12408;DHT22;6268;48.188;17.134;2023-03-23T00:46:43;11.10;99.90
12408;DHT22;6268;48.188;17.134;2023-03-23T00:49:13;11.00;99.90
12408;DHT22;6268;48.188;17.134;2023-03-23T00:51:41;11.00;99.90
12408;DHT22;6268;48.188;17.134;2023-03-23T00:54:09;11.00;99.90
12408;DHT22;6268;48.188;17.134;2023-03-23T00:56:37;11.00;99.90
12408;DHT22;6268;48.188;17.134;2023-03-23T00:59:07;11.00;99.90
12408;DHT22;6268;48.188;17.134;2023-03-23T01:01:35;11.00;99.90
12408;DHT22;6268;48.188;17.134;2023-03-23T01:04:04;11.00;99.90
12408;DHT22;6268;48.188;17.134;2023-03-23T01:06:33;10.90;99.90
12408;DHT22;6268;48.188;17.134;2023-03-23T01:09:06;10.90;99.90
12408;DHT22;6268;48.188;17.134;2023-03-23T01:11:35;10.90;99.90
12408;DHT22;6268;48.188;17.134;2023-03-23T01:14:03;10.80;99.90
12408;DHT22;6268;48.188;17.134;2023-03-23T01:16:32;10.70;99.90
12408;DHT22;6268;48.188;17.134;2023-03-23T01:19:00;10.60;99.90
12408;DHT22;6268;48.188;17.134;2023-03-23T01:21:28;10.70;99.90
12408;DHT22;6268;48.188;17.134;2023-03-23T01:23:55;10.70;99.90
12408;DHT22;6268;48.188;17.134;2023-03-23T01:26:25;10.60;99.90
12408;DHT22;6268;48.188;17.134;2023-03-23T01:28:54;10.60;99.90
12408;DHT22;6268;48.188;17.134;2023-03-23T01:31:24;10.60;99.90
12408;DHT22;6268;48.188;17.134;2023-03-23T01:33:54;10.50;99.90
12408;DHT22;6268;48.188;17.134;2023-03-23T01:36:24;10.50;99.90
12408;DHT22;6268;48.188;17.134;2023-03-23T01:38:55;10.50;99.90
12408;DHT22;6268;48.188;17.134;2023-03-23T01:41:24;10.50;99.90
12408;DHT22;6268;48.188;17.134;2023-03-23T01:43:57;10.50;99.90
12408;DHT22;6268;48.188;17.134;2023-03-23T01:46:30;10.60;99.90
12408;DHT22;6268;48.188;17.134;2023-03-23T01:49:03;10.60;99.90
12408;DHT22;6268;48.188;17.134;2023-03-23T01:51:37;10.60;99.90
12408;DHT22;6268;48.188;17.134;2023-03-23T01:54:10;10.50;99.90
12408;DHT22;6268;48.188;17.134;2023-03-23T01:56:44;10.50;99.90
12408;DHT22;6268;48.188;17.134;2023-03-23T01:59:14;10.50;99.90
12408;DHT22;6268;48.188;17.134;2023-03-23T02:01:43;10.50;99.90
12408;DHT22;6268;48.188;17.134;2023-03-23T02:04:14;10.50;99.90
12408;DHT22;6268;48.188;17.134;2023-03-23T02:06:44;10.40;99.90
12408;DHT22;6268;48.188;17.134;2023-03-23T02:09:13;10.30;99.90
12408;DHT22;6268;48.188;17.134;2023-03-23T02:11:43;10.20;99.90
12408;DHT22;6268;48.188;17.134;2023-03-23T02:14:11;10.20;99.90
12408;DHT22;6268;48.188;17.134;2023-03-23T02:16:43;10.20;99.90
12408;DHT22;6268;48.188;17.134;2023-03-23T02:19:37;10.20;99.90
12408;DHT22;6268;48.188;17.134;2023-03-23T02:22:32;10.20;99.90
12408;DHT22;6268;48.188;17.134;2023-03-23T02:25:43;10.10;99.90
12408;DHT22;6268;48.188;17.134;2023-03-23T02:28:36;10.10;99.90
12408;DHT22;6268;48.188;17.134;2023-03-23T02:34:29;10.30;99.90
12408;DHT22;6268;48.188;17.134;2023-03-23T02:37:01;10.40;99.90
12408;DHT22;6268;48.188;17.134;2023-03-23T02:39:34;10.40;99.90
12408;DHT22;6268;48.188;17.134;2023-03-23T02:42:07;10.40;99.90
12408;DHT22;6268;48.188;17.134;2023-03-23T02:44:39;10.30;99.90
12408;DHT22;6268;48.188;17.134;2023-03-23T02:47:13;10.30;99.90
12408;DHT22;6268;48.188;17.134;2023-03-23T02:49:47;10.30;99.90
12408;DHT22;6268;48.188;17.134;2023-03-23T02:52:20;10.20;99.90
12408;DHT22;6268;48.188;17.134;2023-03-23T02:54:52;10.30;99.90
12408;DHT22;6268;48.188;17.134;2023-03-23T02:57:24;10.20;99.90
12408;DHT22;6268;48.188;17.134;2023-03-23T02:59:53;10.10;99.90
12408;DHT22;6268;48.188;17.134;2023-03-23T03:02:22;10.10;99.90
12408;DHT22;6268;48.188;17.134;2023-03-23T03:04:58;10.10;99.90
12408;DHT22;6268;48.188;17.134;2023-03-23T03:07:47;10.10;99.90
12408;DHT22;6268;48.188;17.134;2023-03-23T03:10:25;9.90;99.90
12408;DHT22;6268;48.188;17.134;2023-03-23T03:13:04;9.80;99.90
12408;DHT22;6268;48.188;17.134;2023-03-23T03:15:42;9.90;99.90
12408;DHT22;6268;48.188;17.134;2023-03-23T03:18:20;9.90;99.90
12408;DHT22;6268;48.188;17.134;2023-03-23T03:20:55;9.90;99.90
12408;DHT22;6268;48.188;17.134;2023-03-23T03:23:28;9.90;99.90
12408;DHT22;6268;48.188;17.134;2023-03-23T03:25:59;10.00;99.90
12408;DHT22;6268;48.188;17.134;2023-03-23T03:28:31;9.90;99.90
12408;DHT22;6268;48.188;17.134;2023-03-23T03:31:02;10.00;99.90
12408;DHT22;6268;48.188;17.134;2023-03-23T03:33:32;9.90;99.90
12408;DHT22;6268;48.188;17.134;2023-03-23T03:36:04;9.90;99.90
12408;DHT22;6268;48.188;17.134;2023-03-23T03:38:41;9.90;99.90
12408;DHT22;6268;48.188;17.134;2023-03-23T03:41:09;10.00;99.90
12408;DHT22;6268;48.188;17.134;2023-03-23T03:43:37;10.00;99.90
12408;DHT22;6268;48.188;17.134;2023-03-23T03:46:05;10.00;99.90
12408;DHT22;6268;48.188;17.134;2023-03-23T03:48:34;9.90;99.90
12408;DHT22;6268;48.188;17.134;2023-03-23T03:51:04;9.80;99.90
12408;DHT22;6268;48.188;17.134;2023-03-23T03:53:36;9.80;99.90
12408;DHT22;6268;48.188;17.134;2023-03-23T03:56:04;9.90;99.90
12408;DHT22;6268;48.188;17.134;2023-03-23T03:58:33;9.80;99.90
12408;DHT22;6268;48.188;17.134;2023-03-23T04:01:03;9.70;99.90
12408;DHT22;6268;48.188;17.134;2023-03-23T04:03:31;9.80;99.90
12408;DHT22;6268;48.188;17.134;2023-03-23T04:05:58;9.70;99.90
12408;DHT22;6268;48.188;17.134;2023-03-23T04:08:28;9.60;99.90
12408;DHT22;6268;48.188;17.134;2023-03-23T04:10:56;9.60;99.90
12408;DHT22;6268;48.188;17.134;2023-03-23T04:13:24;9.60;99.90
12408;DHT22;6268;48.188;17.134;2023-03-23T04:15:51;9.60;99.90
12408;DHT22;6268;48.188;17.134;2023-03-23T04:18:19;9.60;99.90
12408;DHT22;6268;48.188;17.134;2023-03-23T04:20:48;9.70;99.90
12408;DHT22;6268;48.188;17.134;2023-03-23T04:23:18;9.70;99.90
12408;DHT22;6268;48.188;17.134;2023-03-23T04:25:50;9.70;99.90
12408;DHT22;6268;48.188;17.134;2023-03-23T04:28:19;9.70;99.90
12408;DHT22;6268;48.188;17.134;2023-03-23T04:30:50;9.60;99.90
12408;DHT22;6268;48.188;17.134;2023-03-23T04:33:19;9.60;99.90
12408;DHT22;6268;48.188;17.134;2023-03-23T04:35:48;9.60;99.90
12408;DHT22;6268;48.188;17.134;2023-03-23T04:38:16;9.60;99.90
12408;DHT22;6268;48.188;17.134;2023-03-23T04:40:46;9.60;99.90
12408;DHT22;6268;48.188;17.134;2023-03-23T04:43:18;9.50;99.90
12408;DHT22;6268;48.188;17.134;2023-03-23T04:45:51;9.40;99.90
12408;DHT22;6268;48.188;17.134;2023-03-23T04:48:22;9.50;99.90
12408;DHT22;6268;48.188;17.134;2023-03-23T04:50:50;9.50;99.90
12408;DHT22;6268;48.188;17.134;2023-03-23T04:53:18;9.50;99.90
12408;DHT22;6268;48.188;17.134;2023-03-23T04:55:49;9.50;99.90
12408;DHT22;6268;48.188;17.134;2023-03-23T04:58:17;9.50;99.90
12408;DHT22;6268;48.188;17.134;2023-03-23T05:00:45;9.50;99.90
12408;DHT22;6268;48.188;17.134;2023-03-23T05:03:15;9.50;99.90
12408;DHT22;6268;48.188;17.134;2023-03-23T05:05:43;9.60;99.90
12408;DHT22;6268;48.188;17.134;2023-03-23T05:08:18;9.80;99.90
12408;DHT22;6268;48.188;17.134;2023-03-23T05:10:53;9.90;99.90
12408;DHT22;6268;48.188;17.134;2023-03-23T05:13:23;9.90;99.90
12408;DHT22;6268;48.188;17.134;2023-03-23T05:15:51;9.90;99.90
12408;DHT22;6268;48.188;17.134;2023-03-23T05:18:19;9.90;99.90
12408;DHT22;6268;48.188;17.134;2023-03-23T05:20:49;10.10;99.90
12408;DHT22;6268;48.188;17.134;2023-03-23T05:23:20;10.40;99.90
12408;DHT22;6268;48.188;17.134;2023-03-23T05:25:55;10.90;99.90
12408;DHT22;6268;48.188;17.134;2023-03-23T05:28:26;11.30;99.90
12408;DHT22;6268;48.188;17.134;2023-03-23T05:30:54;11.60;99.90
12408;DHT22;6268;48.188;17.134;2023-03-23T05:33:23;11.70;99.90
12408;DHT22;6268;48.188;17.134;2023-03-23T05:35:51;11.60;99.90
12408;DHT22;6268;48.188;17.134;2023-03-23T05:38:19;11.80;99.90
12408;DHT22;6268;48.188;17.134;2023-03-23T05:40:48;11.90;99.90
12408;DHT22;6268;48.188;17.134;2023-03-23T05:43:18;12.10;99.90
12408;DHT22;6268;48.188;17.134;2023-03-23T05:45:46;12.30;99.90
12408;DHT22;6268;48.188;17.134;2023-03-23T05:48:14;12.40;99.90
12408;DHT22;6268;48.188;17.134;2023-03-23T05:50:42;12.50;99.90
12408;DHT22;6268;48.188;17.134;2023-03-23T05:53:10;12.30;99.90
12408;DHT22;6268;48.188;17.134;2023-03-23T05:55:38;12.30;99.90
12408;DHT22;6268;48.188;17.134;2023-03-23T05:58:05;12.40;99.90
12408;DHT22;6268;48.188;17.134;2023-03-23T06:00:34;12.40;99.90
12408;DHT22;6268;48.188;17.134;2023-03-23T06:03:02;12.60;99.90
12408;DHT22;6268;48.188;17.134;2023-03-23T06:05:30;12.60;99.90
12408;DHT22;6268;48.188;17.134;2023-03-23T06:07:58;12.50;99.90
12408;DHT22;6268;48.188;17.134;2023-03-23T06:10:27;12.80;99.90
12408;DHT22;6268;48.188;17.134;2023-03-23T06:12:56;13.10;99.90
12408;DHT22;6268;48.188;17.134;2023-03-23T06:15:24;13.20;99.90
12408;DHT22;6268;48.188;17.134;2023-03-23T06:17:58;13.60;99.90
12408;DHT22;6268;48.188;17.134;2023-03-23T06:20:26;13.90;99.90
12408;DHT22;6268;48.188;17.134;2023-03-23T06:22:53;13.90;99.90
12408;DHT22;6268;48.188;17.134;2023-03-23T06:25:21;14.00;99.90
12408;DHT22;6268;48.188;17.134;2023-03-23T06:27:50;14.10;99.90
12408;DHT22;6268;48.188;17.134;2023-03-23T06:30:19;14.30;99.90
12408;DHT22;6268;48.188;17.134;2023-03-23T06:32:47;14.90;99.90
12408;DHT22;6268;48.188;17.134;2023-03-23T06:35:17;15.50;99.90
12408;DHT22;6268;48.188;17.134;2023-03-23T06:37:45;15.60;99.90
12408;DHT22;6268;48.188;17.134;2023-03-23T06:40:13;16.00;97.40
12408;DHT22;6268;48.188;17.134;2023-03-23T06:42:44;15.80;98.50
12408;DHT22;6268;48.188;17.134;2023-03-23T06:45:12;15.70;97.00
12408;DHT22;6268;48.188;17.134;2023-03-23T06:47:39;15.00;98.50
12408;DHT22;6268;48.188;17.134;2023-03-23T06:50:07;14.40;99.90
12408;DHT22;6268;48.188;17.134;2023-03-23T06:52:37;14.70;99.90
12408;DHT22;6268;48.188;17.134;2023-03-23T06:55:05;15.30;99.30
12408;DHT22;6268;48.188;17.134;2023-03-23T06:57:34;15.60;97.70
12408;DHT22;6268;48.188;17.134;2023-03-23T07:00:01;15.60;97.10
12408;DHT22;6268;48.188;17.134;2023-03-23T07:02:30;15.60;96.40
12408;DHT22;6268;48.188;17.134;2023-03-23T07:04:59;15.50;99.90
12408;DHT22;6268;48.188;17.134;2023-03-23T07:07:27;15.50;95.10
12408;DHT22;6268;48.188;17.134;2023-03-23T07:09:56;15.10;96.50
12408;DHT22;6268;48.188;17.134;2023-03-23T07:12:24;15.30;96.20
12408;DHT22;6268;48.188;17.134;2023-03-23T07:14:53;15.30;97.30
12408;DHT22;6268;48.188;17.134;2023-03-23T07:17:20;14.80;97.70
12408;DHT22;6268;48.188;17.134;2023-03-23T07:19:48;15.10;97.70
12408;DHT22;6268;48.188;17.134;2023-03-23T07:22:16;15.20;98.80
12408;DHT22;6268;48.188;17.134;2023-03-23T07:24:44;15.30;97.80
12408;DHT22;6268;48.188;17.134;2023-03-23T07:27:13;15.50;95.80
12408;DHT22;6268;48.188;17.134;2023-03-23T07:29:41;15.70;95.60
12408;DHT22;6268;48.188;17.134;2023-03-23T07:32:11;15.50;94.70
12408;DHT22;6268;48.188;17.134;2023-03-23T07:34:39;15.30;96.10
12408;DHT22;6268;48.188;17.134;2023-03-23T07:37:07;15.20;99.90
12408;DHT22;6268;48.188;17.134;2023-03-23T07:39:36;15.60;99.30
12408;DHT22;6268;48.188;17.134;2023-03-23T07:42:03;15.70;97.40
12408;DHT22;6268;48.188;17.134;2023-03-23T07:44:34;15.60;94.70
12408;DHT22;6268;48.188;17.134;2023-03-23T07:47:02;15.00;95.30
12408;DHT22;6268;48.188;17.134;2023-03-23T07:49:30;14.50;99.80
12408;DHT22;6268;48.188;17.134;2023-03-23T07:51:58;14.40;97.50
12408;DHT22;6268;48.188;17.134;2023-03-23T07:54:28;14.50;97.50
12408;DHT22;6268;48.188;17.134;2023-03-23T07:56:56;14.60;96.60
12408;DHT22;6268;48.188;17.134;2023-03-23T07:59:24;14.70;96.70
12408;DHT22;6268;48.188;17.134;2023-03-23T08:01:53;14.50;97.40
12408;DHT22;6268;48.188;17.134;2023-03-23T08:04:21;14.30;96.80
12408;DHT22;6268;48.188;17.134;2023-03-23T08:06:48;14.20;97.10
12408;DHT22;6268;48.188;17.134;2023-03-23T08:09:16;14.40;97.10
12408;DHT22;6268;48.188;17.134;2023-03-23T08:11:44;14.40;97.40
12408;DHT22;6268;48.188;17.134;2023-03-23T08:14:14;14.20;98.40
12408;DHT22;6268;48.188;17.134;2023-03-23T08:16:42;14.00;99.10
12408;DHT22;6268;48.188;17.134;2023-03-23T08:19:11;14.00;98.80
12408;DHT22;6268;48.188;17.134;2023-03-23T08:21:39;13.80;99.10
12408;DHT22;6268;48.188;17.134;2023-03-23T08:24:07;13.60;99.10
12408;DHT22;6268;48.188;17.134;2023-03-23T08:26:34;13.70;99.50
12408;DHT22;6268;48.188;17.134;2023-03-23T08:29:03;14.00;99.10
12408;DHT22;6268;48.188;17.134;2023-03-23T08:31:32;14.10;98.00
12408;DHT22;6268;48.188;17.134;2023-03-23T08:34:01;14.00;98.60
12408;DHT22;6268;48.188;17.134;2023-03-23T08:36:32;14.30;98.80
12408;DHT22;6268;48.188;17.134;2023-03-23T08:39:00;14.60;97.40
12408;DHT22;6268;48.188;17.134;2023-03-23T08:41:30;15.10;97.20
12408;DHT22;6268;48.188;17.134;2023-03-23T08:43:58;15.90;94.90
12408;DHT22;6268;48.188;17.134;2023-03-23T08:46:26;16.00;92.60
12408;DHT22;6268;48.188;17.134;2023-03-23T08:48:54;15.90;93.70
12408;DHT22;6268;48.188;17.134;2023-03-23T08:51:22;15.90;93.00
12408;DHT22;6268;48.188;17.134;2023-03-23T08:53:51;15.20;93.70
12408;DHT22;6268;48.188;17.134;2023-03-23T08:56:20;14.90;94.80
12408;DHT22;6268;48.188;17.134;2023-03-23T08:58:48;15.10;94.20
12408;DHT22;6268;48.188;17.134;2023-03-23T09:01:16;15.00;94.40
12408;DHT22;6268;48.188;17.134;2023-03-23T09:03:44;15.00;95.10
12408;DHT22;6268;48.188;17.134;2023-03-23T09:06:12;14.90;96.00
12408;DHT22;6268;48.188;17.134;2023-03-23T09:08:39;15.10;97.00
12408;DHT22;6268;48.188;17.134;2023-03-23T09:11:09;15.10;96.40
12408;DHT22;6268;48.188;17.134;2023-03-23T09:13:38;15.30;95.60
12408;DHT22;6268;48.188;17.134;2023-03-23T09:16:08;15.30;96.60
12408;DHT22;6268;48.188;17.134;2023-03-23T09:18:36;15.90;94.40
12408;DHT22;6268;48.188;17.134;2023-03-23T09:21:04;16.40;93.40
12408;DHT22;6268;48.188;17.134;2023-03-23T09:23:32;16.10;92.30
12408;DHT22;6268;48.188;17.134;2023-03-23T09:26:01;16.00;92.80
12408;DHT22;6268;48.188;17.134;2023-03-23T09:28:31;16.50;92.50
12408;DHT22;6268;48.188;17.134;2023-03-23T09:30:58;17.80;90.30
12408;DHT22;6268;48.188;17.134;2023-03-23T09:33:26;18.10;86.30
12408;DHT22;6268;48.188;17.134;2023-03-23T09:35:55;17.80;87.70
12408;DHT22;6268;48.188;17.134;2023-03-23T09:38:22;18.00;85.40
12408;DHT22;6268;48.188;17.134;2023-03-23T09:40:56;18.10;84.30
12408;DHT22;6268;48.188;17.134;2023-03-23T09:43:44;17.50;85.10
12408;DHT22;6268;48.188;17.134;2023-03-23T09:46:39;17.50;87.20
12408;DHT22;6268;48.188;17.134;2023-03-23T09:49:19;17.60;86.20
12408;DHT22;6268;48.188;17.134;2023-03-23T09:51:53;18.20;85.00
12408;DHT22;6268;48.188;17.134;2023-03-23T09:54:27;19.10;80.30
12408;DHT22;6268;48.188;17.134;2023-03-23T09:56:59;18.90;81.60
12408;DHT22;6268;48.188;17.134;2023-03-23T09:59:34;18.80;79.90
12408;DHT22;6268;48.188;17.134;2023-03-23T10:02:13;19.50;78.30
12408;DHT22;6268;48.188;17.134;2023-03-23T10:04:45;20.00;74.30
12408;DHT22;6268;48.188;17.134;2023-03-23T10:07:16;20.40;73.50
12408;DHT22;6268;48.188;17.134;2023-03-23T10:09:47;21.10;71.30
12408;DHT22;6268;48.188;17.134;2023-03-23T10:12:27;21.20;68.50
12408;DHT22;6268;48.188;17.134;2023-03-23T10:15:14;20.80;68.90
12408;DHT22;6268;48.188;17.134;2023-03-23T10:17:48;20.80;68.30
12408;DHT22;6268;48.188;17.134;2023-03-23T10:20:36;20.90;68.10
12408;DHT22;6268;48.188;17.134;2023-03-23T10:23:33;21.00;67.60
12408;DHT22;6268;48.188;17.134;2023-03-23T10:26:16;20.60;67.60
12408;DHT22;6268;48.188;17.134;2023-03-23T10:28:56;20.30;69.50
12408;DHT22;6268;48.188;17.134;2023-03-23T10:31:37;20.60;67.70
12408;DHT22;6268;48.188;17.134;2023-03-23T10:34:13;20.70;67.60
12408;DHT22;6268;48.188;17.134;2023-03-23T10:36:54;20.30;68.50
12408;DHT22;6268;48.188;17.134;2023-03-23T10:39:30;20.00;69.30
12408;DHT22;6268;48.188;17.134;2023-03-23T10:42:01;19.70;68.60
12408;DHT22;6268;48.188;17.134;2023-03-23T10:44:33;19.00;71.10
12408;DHT22;6268;48.188;17.134;2023-03-23T10:47:07;19.30;71.50
12408;DHT22;6268;48.188;17.134;2023-03-23T10:49:40;19.10;72.00
12408;DHT22;6268;48.188;17.134;2023-03-23T10:52:24;19.30;73.10
12408;DHT22;6268;48.188;17.134;2023-03-23T10:54:57;19.70;72.00
12408;DHT22;6268;48.188;17.134;2023-03-23T10:57:29;20.50;69.40
12408;DHT22;6268;48.188;17.134;2023-03-23T11:00:01;20.60;70.10
12408;DHT22;6268;48.188;17.134;2023-03-23T11:02:39;20.20;70.30
12408;DHT22;6268;48.188;17.134;2023-03-23T11:05:17;20.20;71.10
12408;DHT22;6268;48.188;17.134;2023-03-23T11:07:52;20.10;70.80
12408;DHT22;6268;48.188;17.134;2023-03-23T11:10:24;19.90;71.20
12408;DHT22;6268;48.188;17.134;2023-03-23T11:12:56;19.90;72.10
12408;DHT22;6268;48.188;17.134;2023-03-23T11:15:29;20.00;71.60
12408;DHT22;6268;48.188;17.134;2023-03-23T11:18:02;19.70;71.30
12408;DHT22;6268;48.188;17.134;2023-03-23T11:20:35;19.50;75.00
12408;DHT22;6268;48.188;17.134;2023-03-23T11:23:20;19.70;73.30
12408;DHT22;6268;48.188;17.134;2023-03-23T11:26:02;19.50;74.00
12408;DHT22;6268;48.188;17.134;2023-03-23T11:28:45;19.50;73.50
12408;DHT22;6268;48.188;17.134;2023-03-23T11:31:16;19.40;73.40
12408;DHT22;6268;48.188;17.134;2023-03-23T11:33:53;19.40;74.50
12408;DHT22;6268;48.188;17.134;2023-03-23T11:36:30;19.70;73.60
12408;DHT22;6268;48.188;17.134;2023-03-23T11:39:01;19.90;72.80
12408;DHT22;6268;48.188;17.134;2023-03-23T11:41:33;20.00;73.00
12408;DHT22;6268;48.188;17.134;2023-03-23T11:44:09;20.40;72.50
12408;DHT22;6268;48.188;17.134;2023-03-23T11:46:45;19.90;72.50
12408;DHT22;6268;48.188;17.134;2023-03-23T11:49:28;19.80;71.90
12408;DHT22;6268;48.188;17.134;2023-03-23T11:52:08;19.60;72.40
12408;DHT22;6268;48.188;17.134;2023-03-23T11:54:46;19.50;72.80
12408;DHT22;6268;48.188;17.134;2023-03-23T11:57:17;19.40;72.80
12408;DHT22;6268;48.188;17.134;2023-03-23T11:59:45;19.50;73.70
12408;DHT22;6268;48.188;17.134;2023-03-23T12:02:36;19.30;74.70
12408;DHT22;6268;48.188;17.134;2023-03-23T12:05:29;19.40;77.80
12408;DHT22;6268;48.188;17.134;2023-03-23T12:08:24;19.30;75.90
12408;DHT22;6268;48.188;17.134;2023-03-23T12:11:07;19.40;76.50
12408;DHT22;6268;48.188;17.134;2023-03-23T12:14:01;19.50;76.40
12408;DHT22;6268;48.188;17.134;2023-03-23T12:16:50;19.50;75.00
12408;DHT22;6268;48.188;17.134;2023-03-23T12:19:31;19.60;77.50
12408;DHT22;6268;48.188;17.134;2023-03-23T12:22:17;19.60;76.60
12408;DHT22;6268;48.188;17.134;2023-03-23T12:25:05;19.60;75.00
12408;DHT22;6268;48.188;17.134;2023-03-23T12:27:51;19.30;76.80
12408;DHT22;6268;48.188;17.134;2023-03-23T12:30:33;19.80;76.00
12408;DHT22;6268;48.188;17.134;2023-03-23T12:33:17;20.20;75.40
12408;DHT22;6268;48.188;17.134;2023-03-23T12:35:58;20.30;73.80
12408;DHT22;6268;48.188;17.134;2023-03-23T12:38:51;20.10;74.10
12408;DHT22;6268;48.188;17.134;2023-03-23T12:41:38;19.90;74.60
12408;DHT22;6268;48.188;17.134;2023-03-23T12:44:15;20.10;78.30
12408;DHT22;6268;48.188;17.134;2023-03-23T12:47:06;20.30;78.30
12408;DHT22;6268;48.188;17.134;2023-03-23T12:49:44;20.10;75.70
12408;DHT22;6268;48.188;17.134;2023-03-23T12:52:21;19.70;76.20
12408;DHT22;6268;48.188;17.134;2023-03-23T12:54:58;19.70;76.70
12408;DHT22;6268;48.188;17.134;2023-03-23T12:57:39;19.60;76.20
12408;DHT22;6268;48.188;17.134;2023-03-23T13:00:17;19.80;78.00
12408;DHT22;6268;48.188;17.134;2023-03-23T13:02:53;20.00;76.40
12408;DHT22;6268;48.188;17.134;2023-03-23T13:05:35;20.20;75.80
12408;DHT22;6268;48.188;17.134;2023-03-23T13:08:12;20.30;74.40
12408;DHT22;6268;48.188;17.134;2023-03-23T13:10:47;20.40;74.20
12408;DHT22;6268;48.188;17.134;2023-03-23T13:13:19;20.30;74.10
12408;DHT22;6268;48.188;17.134;2023-03-23T13:15:59;20.30;74.20
12408;DHT22;6268;48.188;17.134;2023-03-23T13:18:38;20.20;74.30
12408;DHT22;6268;48.188;17.134;2023-03-23T13:21:16;20.20;74.10
12408;DHT22;6268;48.188;17.134;2023-03-23T13:23:49;20.20;74.70
12408;DHT22;6268;48.188;17.134;2023-03-23T13:26:22;20.40;75.60
12408;DHT22;6268;48.188;17.134;2023-03-23T13:28:55;20.60;76.80
12408;DHT22;6268;48.188;17.134;2023-03-23T13:31:26;20.40;74.80
12408;DHT22;6268;48.188;17.134;2023-03-23T13:34:03;20.50;75.60
12408;DHT22;6268;48.188;17.134;2023-03-23T13:36:35;20.70;74.50
12408;DHT22;6268;48.188;17.134;2023-03-23T13:39:06;20.90;75.50
12408;DHT22;6268;48.188;17.134;2023-03-23T13:41:59;21.00;75.90
12408;DHT22;6268;48.188;17.134;2023-03-23T13:44:42;21.10;73.40
12408;DHT22;6268;48.188;17.134;2023-03-23T13:47:26;20.90;72.70
12408;DHT22;6268;48.188;17.134;2023-03-23T13:49:58;20.90;73.80
12408;DHT22;6268;48.188;17.134;2023-03-23T13:52:37;20.90;74.30
12408;DHT22;6268;48.188;17.134;2023-03-23T13:55:37;20.80;74.10
12408;DHT22;6268;48.188;17.134;2023-03-23T13:58:22;20.90;73.60
12408;DHT22;6268;48.188;17.134;2023-03-23T14:01:09;20.90;72.90
12408;DHT22;6268;48.188;17.134;2023-03-23T14:03:45;20.80;71.80
12408;DHT22;6268;48.188;17.134;2023-03-23T14:06:19;20.60;71.70
12408;DHT22;6268;48.188;17.134;2023-03-23T14:08:52;20.60;74.00
12408;DHT22;6268;48.188;17.134;2023-03-23T14:11:23;20.50;73.10
12408;DHT22;6268;48.188;17.134;2023-03-23T14:14:05;20.30;73.50
12408;DHT22;6268;48.188;17.134;2023-03-23T14:16:38;20.20;73.50
12408;DHT22;6268;48.188;17.134;2023-03-23T14:19:15;20.20;73.70
12408;DHT22;6268;48.188;17.134;2023-03-23T14:21:54;20.20;73.30
12408;DHT22;6268;48.188;17.134;2023-03-23T14:24:24;20.20;74.30
12408;DHT22;6268;48.188;17.134;2023-03-23T14:27:02;20.20;74.50
12408;DHT22;6268;48.188;17.134;2023-03-23T14:29:37;20.30;74.30
12408;DHT22;6268;48.188;17.134;2023-03-23T14:32:06;20.30;73.90
12408;DHT22;6268;48.188;17.134;2023-03-23T14:34:39;20.30;74.00
12408;DHT22;6268;48.188;17.134;2023-03-23T14:37:10;20.30;73.10
12408;DHT22;6268;48.188;17.134;2023-03-23T14:39:40;20.30;74.00
12408;DHT22;6268;48.188;17.134;2023-03-23T14:42:14;20.30;74.60
12408;DHT22;6268;48.188;17.134;2023-03-23T14:44:47;20.20;73.40
12408;DHT22;6268;48.188;17.134;2023-03-23T14:47:21;20.20;73.60
12408;DHT22;6268;48.188;17.134;2023-03-23T14:49:53;20.20;74.00
12408;DHT22;6268;48.188;17.134;2023-03-23T14:52:24;20.30;74.20
12408;DHT22;6268;48.188;17.134;2023-03-23T14:54:54;20.30;74.60
12408;DHT22;6268;48.188;17.134;2023-03-23T14:57:27;20.30;74.00
12408;DHT22;6268;48.188;17.134;2023-03-23T15:00:04;20.30;73.60
12408;DHT22;6268;48.188;17.134;2023-03-23T15:02:40;20.30;73.30
12408;DHT22;6268;48.188;17.134;2023-03-23T15:05:14;20.40;74.00
12408;DHT22;6268;48.188;17.134;2023-03-23T15:07:47;20.40;73.50
12408;DHT22;6268;48.188;17.134;2023-03-23T15:10:22;20.50;72.80
12408;DHT22;6268;48.188;17.134;2023-03-23T15:12:51;20.50;72.80
12408;DHT22;6268;48.188;17.134;2023-03-23T15:15:27;20.50;72.50
12408;DHT22;6268;48.188;17.134;2023-03-23T15:17:57;20.50;72.70
12408;DHT22;6268;48.188;17.134;2023-03-23T15:20:31;20.40;72.80
12408;DHT22;6268;48.188;17.134;2023-03-23T15:23:16;20.40;72.60
12408;DHT22;6268;48.188;17.134;2023-03-23T15:25:50;20.30;72.30
12408;DHT22;6268;48.188;17.134;2023-03-23T15:28:21;20.30;72.50
12408;DHT22;6268;48.188;17.134;2023-03-23T15:30:57;20.30;72.80
12408;DHT22;6268;48.188;17.134;2023-03-23T15:33:34;20.30;72.50
12408;DHT22;6268;48.188;17.134;2023-03-23T15:36:07;20.20;72.60
12408;DHT22;6268;48.188;17.134;2023-03-23T15:38:36;20.20;73.30
12408;DHT22;6268;48.188;17.134;2023-03-23T15:41:06;20.20;73.60
12408;DHT22;6268;48.188;17.134;2023-03-23T15:43:51;20.20;74.10
12408;DHT22;6268;48.188;17.134;2023-03-23T15:46:22;20.20;73.50
12408;DHT22;6268;48.188;17.134;2023-03-23T15:48:53;20.10;73.60
12408;DHT22;6268;48.188;17.134;2023-03-23T15:51:39;20.10;74.40
12408;DHT22;6268;48.188;17.134;2023-03-23T15:54:11;20.10;74.30
12408;DHT22;6268;48.188;17.134;2023-03-23T15:56:42;20.10;74.80
12408;DHT22;6268;48.188;17.134;2023-03-23T15:59:10;20.10;75.10
12408;DHT22;6268;48.188;17.134;2023-03-23T16:01:41;20.00;76.20
12408;DHT22;6268;48.188;17.134;2023-03-23T16:04:13;20.00;75.30
12408;DHT22;6268;48.188;17.134;2023-03-23T16:06:44;20.00;75.40
12408;DHT22;6268;48.188;17.134;2023-03-23T16:09:16;20.00;75.50
12408;DHT22;6268;48.188;17.134;2023-03-23T16:11:46;20.00;75.10